Language: 


Des rapports , des résumés tant et plus, au choix de chacun....


Données statistiques de la station
Quotidien Rapport Février 23, 2017 Unités:  les deux    Anglais   Métrique
« Précédent Jour
Suivant Jour »
Quotidien Hebdomadaire Mensuel Annuel Actuel
  Haut: Bas: Moyen:
Température: TemperatureC °F /  -17.8 °C 7.2 °F /  -13.8 °C 9.5 °F /  -12.5 °C
Pt de rosée: DewpointC °F /  -17.8 °C -0.4 °F /  -18 °C 6 °F /  -14.4 °C
Humidité: Humidity % 54 % 80 %
Vitesse du vent: WindSpeedKMH mph /  0 km/h - 32.9 mph /  52.9 km/h
Rafales: WindSpeedGustKMH mph /  0 km/h - -
Vent:- - WSW
Pression: PressurehPa in /  0 hPa 994.1 in /  33660.2 hPa -
Précipitation: 1.8 in /  45.72 mm    
Historical Graphs
 
 
Données statistiques pour Février 23, 2017
Heure Température Point de rosée Pression Vent Vitesse du vent Refales Humidité Pluie (taux horaire)
TemperatureC °F /  -17.8 °C DewpointC °F /  -17.8 °C PressurehPa in /  0 hPa Calm     Humidity % HourlyPrecipMM in /  0 mm
00:04 10.3 °F /  -12.1 °C 9.7 °F /  -12.4 °C 1007.0 in /  34097 hPa WSW 28.5 mph /  45.9 km/h 45.1 mph /  72.6 km/h 96 % 0.0 in /  0 mm
00:09 10.3 °F /  -12.1 °C 9.7 °F /  -12.4 °C 1007.0 in /  34097 hPa West 28.5 mph /  45.9 km/h 43.6 mph /  70.2 km/h 96 % 0.0 in /  0 mm
00:14 10.3 °F /  -12.1 °C 9.7 °F /  -12.4 °C 1007.0 in /  34097 hPa WSW 45.7 mph /  73.5 km/h 45.7 mph /  73.5 km/h 96 % 0.0 in /  0 mm
00:19 10.3 °F /  -12.1 °C 9.7 °F /  -12.4 °C 1007.0 in /  34097 hPa WSW 37.8 mph /  60.8 km/h 45.7 mph /  73.5 km/h 96 % 0.0 in /  0 mm
00:24 10.3 °F /  -12.1 °C 9.7 °F /  -12.4 °C 1007.0 in /  34097 hPa WSW 31.4 mph /  50.5 km/h 45.7 mph /  73.5 km/h 96 % 0.0 in /  0 mm
00:29 10.3 °F /  -12.1 °C 9.7 °F /  -12.4 °C 1007.0 in /  34097 hPa West 31.4 mph /  50.5 km/h 45.7 mph /  73.5 km/h 96 % 0.3 in /  7.62 mm
00:34 10.3 °F /  -12.1 °C 9.7 °F /  -12.4 °C 1007.0 in /  34097 hPa WNW 23.8 mph /  38.3 km/h 45.7 mph /  73.5 km/h 96 % 0.3 in /  7.62 mm
00:39 10.3 °F /  -12.1 °C 9.7 °F /  -12.4 °C 1007.0 in /  34097 hPa West 36.7 mph /  59.1 km/h 48.9 mph /  78.7 km/h 96 % 0.3 in /  7.62 mm
00:44 10.2 °F /  -12.1 °C 9.6 °F /  -12.4 °C 1007.0 in /  34097 hPa West 38.9 mph /  62.6 km/h 48.9 mph /  78.7 km/h 96 % 0.3 in /  7.62 mm
00:49 10.2 °F /  -12.1 °C 9.6 °F /  -12.4 °C 1007.0 in /  34097 hPa WSW 22.7 mph /  36.5 km/h 42.2 mph /  67.9 km/h 96 % 0.3 in /  7.62 mm
00:54 10.2 °F /  -12.1 °C 9.6 °F /  -12.4 °C 1007.0 in /  34097 hPa WSW 37.0 mph /  59.5 km/h 43.1 mph /  69.4 km/h 96 % 0.3 in /  7.62 mm
00:59 10.2 °F /  -12.1 °C 9.6 °F /  -12.4 °C 1007.0 in /  34097 hPa WSW 23.3 mph /  37.5 km/h 43.6 mph /  70.2 km/h 96 % 0.3 in /  7.62 mm
01:04 10.2 °F /  -12.1 °C 9.6 °F /  -12.4 °C 1007.0 in /  34097 hPa WSW 34.3 mph /  55.2 km/h 43.6 mph /  70.2 km/h 96 % 0.3 in /  7.62 mm
01:09 10.1 °F /  -12.2 °C 9.5 °F /  -12.5 °C 1007.0 in /  34097 hPa WSW 32.8 mph /  52.8 km/h 39.6 mph /  63.7 km/h 96 % 0.3 in /  7.62 mm
01:14 10.1 °F /  -12.2 °C 9.5 °F /  -12.5 °C 1007.0 in /  34097 hPa WSW 23.8 mph /  38.3 km/h 39.6 mph /  63.7 km/h 96 % 0.3 in /  7.62 mm
01:19 10.1 °F /  -12.2 °C 9.5 °F /  -12.5 °C 1007.0 in /  34097 hPa West 28.5 mph /  45.9 km/h 42.5 mph /  68.4 km/h 96 % 0.3 in /  7.62 mm
01:24 10.1 °F /  -12.2 °C 9.5 °F /  -12.5 °C 1006.0 in /  34063.2 hPa West 36.7 mph /  59.1 km/h 44.2 mph /  71.1 km/h 96 % 0.0 in /  0 mm
01:29 10.1 °F /  -12.2 °C 9.5 °F /  -12.5 °C 1006.0 in /  34063.2 hPa WSW 29.9 mph /  48.1 km/h 44.2 mph /  71.1 km/h 96 % 0.0 in /  0 mm
01:34 10.1 °F /  -12.2 °C 9.5 °F /  -12.5 °C 1006.0 in /  34063.2 hPa West 34.3 mph /  55.2 km/h 48.6 mph /  78.2 km/h 96 % 0.0 in /  0 mm
01:39 10.1 °F /  -12.2 °C 9.5 °F /  -12.5 °C 1007.0 in /  34097 hPa WSW 38.5 mph /  62 km/h 48.6 mph /  78.2 km/h 96 % 0.0 in /  0 mm
01:44 10.1 °F /  -12.2 °C 9.5 °F /  -12.5 °C 1007.0 in /  34097 hPa West 28.5 mph /  45.9 km/h 46.0 mph /  74 km/h 96 % 0.0 in /  0 mm
01:49 10.1 °F /  -12.2 °C 9.3 °F /  -12.6 °C 1007.0 in /  34097 hPa WSW 36.7 mph /  59.1 km/h 46.0 mph /  74 km/h 95 % 0.0 in /  0 mm
01:54 10.1 °F /  -12.2 °C 9.3 °F /  -12.6 °C 1007.0 in /  34097 hPa WSW 28.0 mph /  45.1 km/h 41.7 mph /  67.1 km/h 95 % 0.0 in /  0 mm
01:59 10.1 °F /  -12.2 °C 9.3 °F /  -12.6 °C 1007.0 in /  34097 hPa WSW 36.4 mph /  58.6 km/h 44.2 mph /  71.1 km/h 95 % 0.0 in /  0 mm
02:04 10.1 °F /  -12.2 °C 9.3 °F /  -12.6 °C 1007.0 in /  34097 hPa West 28.5 mph /  45.9 km/h 47.9 mph /  77.1 km/h 95 % 0.0 in /  0 mm
02:09 10.1 °F /  -12.2 °C 9.3 °F /  -12.6 °C 1007.0 in /  34097 hPa WSW 24.8 mph /  39.9 km/h 47.9 mph /  77.1 km/h 95 % 0.0 in /  0 mm
02:14 10.0 °F /  -12.2 °C 9.1 °F /  -12.7 °C 1007.0 in /  34097 hPa WSW 32.0 mph /  51.5 km/h 41.4 mph /  66.6 km/h 94 % 0.0 in /  0 mm
02:19 10.0 °F /  -12.2 °C 9.1 °F /  -12.7 °C 1007.0 in /  34097 hPa WSW 23.8 mph /  38.3 km/h 38.5 mph /  62 km/h 94 % 0.0 in /  0 mm
02:24 10.0 °F /  -12.2 °C 9.1 °F /  -12.7 °C 1006.0 in /  34063.2 hPa WSW 27.7 mph /  44.6 km/h 42.2 mph /  67.9 km/h 94 % 0.0 in /  0 mm
02:29 10.0 °F /  -12.2 °C 8.9 °F /  -12.8 °C 1006.0 in /  34063.2 hPa WSW 36.0 mph /  57.9 km/h 42.5 mph /  68.4 km/h 93 % 0.0 in /  0 mm
02:34 10.0 °F /  -12.2 °C 8.9 °F /  -12.8 °C 1006.0 in /  34063.2 hPa WSW 37.0 mph /  59.5 km/h 49.7 mph /  80 km/h 93 % 0.0 in /  0 mm
02:37 10.0 °F /  -12.2 °C 8.9 °F /  -12.8 °C 1006.0 in /  34063.2 hPa WSW 30.6 mph /  49.2 km/h 49.7 mph /  80 km/h 93 % 0.0 in /  0 mm
02:43 10.0 °F /  -12.2 °C 8.9 °F /  -12.8 °C 1006.0 in /  34063.2 hPa WSW 24.8 mph /  39.9 km/h 49.7 mph /  80 km/h 93 % 0.0 in /  0 mm
02:47 9.9 °F /  -12.3 °C 8.8 °F /  -12.9 °C 1006.0 in /  34063.2 hPa WSW 37.5 mph /  60.3 km/h 38.9 mph /  62.6 km/h 93 % 0.0 in /  0 mm
02:52 9.9 °F /  -12.3 °C 9.0 °F /  -12.8 °C 1006.0 in /  34063.2 hPa WSW 24.5 mph /  39.4 km/h 41.0 mph /  66 km/h 94 % 0.0 in /  0 mm
02:57 9.9 °F /  -12.3 °C 9.0 °F /  -12.8 °C 1006.0 in /  34063.2 hPa WSW 35.2 mph /  56.6 km/h 41.0 mph /  66 km/h 94 % 0.0 in /  0 mm
03:02 9.9 °F /  -12.3 °C 9.0 °F /  -12.8 °C 1006.0 in /  34063.2 hPa WSW 18.3 mph /  29.5 km/h 41.4 mph /  66.6 km/h 94 % 0.0 in /  0 mm
03:08 9.9 °F /  -12.3 °C 8.8 °F /  -12.9 °C 1005.0 in /  34029.3 hPa WSW 37.0 mph /  59.5 km/h 40.4 mph /  65 km/h 93 % 0.0 in /  0 mm
03:13 9.9 °F /  -12.3 °C 8.8 °F /  -12.9 °C 1005.0 in /  34029.3 hPa WSW 20.9 mph /  33.6 km/h 47.9 mph /  77.1 km/h 93 % 0.0 in /  0 mm
03:18 9.9 °F /  -12.3 °C 8.7 °F /  -12.9 °C 1005.0 in /  34029.3 hPa WSW 27.4 mph /  44.1 km/h 47.9 mph /  77.1 km/h 92 % 0.0 in /  0 mm
03:23 9.9 °F /  -12.3 °C 8.7 °F /  -12.9 °C 1003.9 in /  33992.1 hPa WSW 28.0 mph /  45.1 km/h 48.9 mph /  78.7 km/h 92 % 0.0 in /  0 mm
03:28 9.9 °F /  -12.3 °C 8.7 °F /  -12.9 °C 1003.9 in /  33992.1 hPa WSW 20.1 mph /  32.3 km/h 48.9 mph /  78.7 km/h 92 % 0.0 in /  0 mm
03:33 9.8 °F /  -12.3 °C 8.7 °F /  -12.9 °C 1003.9 in /  33992.1 hPa West 31.7 mph /  51 km/h 41.4 mph /  66.6 km/h 93 % 0.0 in /  0 mm
03:38 9.8 °F /  -12.3 °C 8.7 °F /  -12.9 °C 1003.9 in /  33992.1 hPa WSW 30.9 mph /  49.7 km/h 38.5 mph /  62 km/h 93 % 0.0 in /  0 mm
03:43 9.8 °F /  -12.3 °C 8.7 °F /  -12.9 °C 1003.9 in /  33992.1 hPa WSW 36.7 mph /  59.1 km/h 48.3 mph /  77.7 km/h 93 % 0.0 in /  0 mm
03:48 9.8 °F /  -12.3 °C 8.7 °F /  -12.9 °C 1003.9 in /  33992.1 hPa West 23.8 mph /  38.3 km/h 48.3 mph /  77.7 km/h 93 % 0.0 in /  0 mm
03:53 9.8 °F /  -12.3 °C 8.7 °F /  -12.9 °C 1005.0 in /  34029.3 hPa WSW 30.2 mph /  48.6 km/h 42.5 mph /  68.4 km/h 93 % 0.0 in /  0 mm
03:58 9.8 °F /  -12.3 °C 8.7 °F /  -12.9 °C 1005.0 in /  34029.3 hPa WSW 23.3 mph /  37.5 km/h 38.5 mph /  62 km/h 93 % 0.0 in /  0 mm
04:03 9.8 °F /  -12.3 °C 8.9 °F /  -12.8 °C 1005.0 in /  34029.3 hPa WSW 23.8 mph /  38.3 km/h 38.5 mph /  62 km/h 94 % 0.0 in /  0 mm
04:08 9.8 °F /  -12.3 °C 8.9 °F /  -12.8 °C 1005.0 in /  34029.3 hPa WSW 37.8 mph /  60.8 km/h 40.7 mph /  65.5 km/h 94 % 0.0 in /  0 mm
04:13 9.7 °F /  -12.4 °C 8.8 °F /  -12.9 °C 1005.0 in /  34029.3 hPa SW 36.7 mph /  59.1 km/h 40.7 mph /  65.5 km/h 94 % 0.0 in /  0 mm
04:18 9.7 °F /  -12.4 °C 8.8 °F /  -12.9 °C 1005.0 in /  34029.3 hPa WSW 36.7 mph /  59.1 km/h 37.0 mph /  59.5 km/h 94 % 0.0 in /  0 mm
04:23 9.7 °F /  -12.4 °C 8.8 °F /  -12.9 °C 1003.9 in /  33992.1 hPa West 23.0 mph /  37 km/h 36.7 mph /  59.1 km/h 94 % 0.0 in /  0 mm
04:28 9.6 °F /  -12.4 °C 8.8 °F /  -12.9 °C 1003.9 in /  33992.1 hPa WSW 36.0 mph /  57.9 km/h 36.7 mph /  59.1 km/h 95 % 0.0 in /  0 mm
04:33 9.6 °F /  -12.4 °C 8.8 °F /  -12.9 °C 1003.9 in /  33992.1 hPa WSW 24.8 mph /  39.9 km/h 40.4 mph /  65 km/h 95 % 0.0 in /  0 mm
04:38 9.6 °F /  -12.4 °C 8.8 °F /  -12.9 °C 1003.9 in /  33992.1 hPa WSW 26.2 mph /  42.2 km/h 41.0 mph /  66 km/h 95 % 0.0 in /  0 mm
04:43 9.6 °F /  -12.4 °C 8.8 °F /  -12.9 °C 1003.9 in /  33992.1 hPa West 28.5 mph /  45.9 km/h 44.2 mph /  71.1 km/h 95 % 0.0 in /  0 mm
04:48 9.5 °F /  -12.5 °C 8.7 °F /  -12.9 °C 1003.9 in /  33992.1 hPa WSW 20.1 mph /  32.3 km/h 44.2 mph /  71.1 km/h 95 % 0.0 in /  0 mm
04:53 9.5 °F /  -12.5 °C 8.7 °F /  -12.9 °C 1002.9 in /  33958.2 hPa WSW 20.1 mph /  32.3 km/h 41.0 mph /  66 km/h 95 % 0.0 in /  0 mm
04:58 9.5 °F /  -12.5 °C 8.7 °F /  -12.9 °C 1002.9 in /  33958.2 hPa WSW 27.4 mph /  44.1 km/h 43.1 mph /  69.4 km/h 95 % 0.0 in /  0 mm
05:03 9.5 °F /  -12.5 °C 8.7 °F /  -12.9 °C 1002.9 in /  33958.2 hPa SW 28.8 mph /  46.3 km/h 43.1 mph /  69.4 km/h 95 % 0.0 in /  0 mm
05:08 9.5 °F /  -12.5 °C 8.7 °F /  -12.9 °C 1001.9 in /  33924.3 hPa WSW 31.7 mph /  51 km/h 41.7 mph /  67.1 km/h 95 % 0.0 in /  0 mm
05:13 9.5 °F /  -12.5 °C 8.7 °F /  -12.9 °C 1001.9 in /  33924.3 hPa SW 28.0 mph /  45.1 km/h 38.1 mph /  61.3 km/h 95 % 0.0 in /  0 mm
05:18 9.5 °F /  -12.5 °C 8.7 °F /  -12.9 °C 1001.9 in /  33924.3 hPa WSW 32.0 mph /  51.5 km/h 36.4 mph /  58.6 km/h 95 % 0.0 in /  0 mm
05:23 9.5 °F /  -12.5 °C 8.7 °F /  -12.9 °C 1002.9 in /  33958.2 hPa WSW 33.5 mph /  53.9 km/h 36.4 mph /  58.6 km/h 95 % 0.0 in /  0 mm
05:28 9.5 °F /  -12.5 °C 8.7 °F /  -12.9 °C 1002.9 in /  33958.2 hPa WSW 34.6 mph /  55.7 km/h 34.6 mph /  55.7 km/h 95 % 0.0 in /  0 mm
05:33 9.5 °F /  -12.5 °C 8.7 °F /  -12.9 °C 1002.9 in /  33958.2 hPa WSW 37.8 mph /  60.8 km/h 37.8 mph /  60.8 km/h 95 % 0.0 in /  0 mm
05:38 9.5 °F /  -12.5 °C 8.7 °F /  -12.9 °C 1002.9 in /  33958.2 hPa WSW 39.6 mph /  63.7 km/h 39.6 mph /  63.7 km/h 95 % 0.0 in /  0 mm
05:43 9.5 °F /  -12.5 °C 8.7 °F /  -12.9 °C 1002.9 in /  33958.2 hPa WSW 24.5 mph /  39.4 km/h 39.6 mph /  63.7 km/h 95 % 0.0 in /  0 mm
05:48 9.5 °F /  -12.5 °C 8.7 °F /  -12.9 °C 1002.9 in /  33958.2 hPa SW 20.1 mph /  32.3 km/h 37.8 mph /  60.8 km/h 95 % 0.0 in /  0 mm
05:53 9.5 °F /  -12.5 °C 8.7 °F /  -12.9 °C 1002.9 in /  33958.2 hPa West 21.2 mph /  34.1 km/h 34.3 mph /  55.2 km/h 95 % 0.0 in /  0 mm
05:58 9.5 °F /  -12.5 °C 8.7 °F /  -12.9 °C 1002.9 in /  33958.2 hPa SW 17.7 mph /  28.5 km/h 34.3 mph /  55.2 km/h 95 % 0.0 in /  0 mm
06:03 9.4 °F /  -12.6 °C 8.7 °F /  -12.9 °C 1002.9 in /  33958.2 hPa SW 17.7 mph /  28.5 km/h 28.5 mph /  45.9 km/h 95 % 0.0 in /  0 mm
06:08 9.4 °F /  -12.6 °C 8.8 °F /  -12.9 °C 1001.9 in /  33924.3 hPa SW 16.9 mph /  27.2 km/h 33.8 mph /  54.4 km/h 96 % 0.0 in /  0 mm
06:13 9.4 °F /  -12.6 °C 8.8 °F /  -12.9 °C 1001.9 in /  33924.3 hPa WSW 31.4 mph /  50.5 km/h 33.8 mph /  54.4 km/h 96 % 0.0 in /  0 mm
06:18 9.4 °F /  -12.6 °C 8.8 °F /  -12.9 °C 1001.9 in /  33924.3 hPa WSW 17.2 mph /  27.7 km/h 34.3 mph /  55.2 km/h 96 % 0.0 in /  0 mm
06:23 9.4 °F /  -12.6 °C 8.8 °F /  -12.9 °C 1001.9 in /  33924.3 hPa SW 16.3 mph /  26.2 km/h 34.3 mph /  55.2 km/h 96 % 0.0 in /  0 mm
06:28 9.3 °F /  -12.6 °C 8.7 °F /  -12.9 °C 1001.9 in /  33924.3 hPa SSW 23.8 mph /  38.3 km/h 32.0 mph /  51.5 km/h 96 % 0.0 in /  0 mm
06:33 9.3 °F /  -12.6 °C 8.7 °F /  -12.9 °C 1001.9 in /  33924.3 hPa WSW 19.5 mph /  31.4 km/h 32.0 mph /  51.5 km/h 96 % 0.0 in /  0 mm
06:38 9.3 °F /  -12.6 °C 8.7 °F /  -12.9 °C 1000.9 in /  33890.5 hPa SSW 20.1 mph /  32.3 km/h 31.4 mph /  50.5 km/h 96 % 0.0 in /  0 mm
06:43 9.2 °F /  -12.7 °C 8.6 °F /  -13 °C 1000.9 in /  33890.5 hPa SW 23.8 mph /  38.3 km/h 31.4 mph /  50.5 km/h 96 % 0.0 in /  0 mm
06:48 9.2 °F /  -12.7 °C 8.6 °F /  -13 °C 1000.9 in /  33890.5 hPa SW 17.2 mph /  27.7 km/h 28.5 mph /  45.9 km/h 96 % 0.0 in /  0 mm
06:53 9.2 °F /  -12.7 °C 8.6 °F /  -13 °C 1000.9 in /  33890.5 hPa SW 23.8 mph /  38.3 km/h 30.9 mph /  49.7 km/h 96 % 0.0 in /  0 mm
06:58 9.2 °F /  -12.7 °C 8.6 °F /  -13 °C 1000.9 in /  33890.5 hPa SW 23.8 mph /  38.3 km/h 30.9 mph /  49.7 km/h 96 % 0.0 in /  0 mm
07:03 9.2 °F /  -12.7 °C 8.6 °F /  -13 °C 1000.9 in /  33890.5 hPa SSW 17.2 mph /  27.7 km/h 34.3 mph /  55.2 km/h 96 % 0.0 in /  0 mm
07:08 9.1 °F /  -12.7 °C 8.5 °F /  -13.1 °C 1000.9 in /  33890.5 hPa SW 27.7 mph /  44.6 km/h 34.3 mph /  55.2 km/h 96 % 0.0 in /  0 mm
07:13 9.1 °F /  -12.7 °C 8.5 °F /  -13.1 °C 1000.9 in /  33890.5 hPa SW 15.8 mph /  25.4 km/h 30.9 mph /  49.7 km/h 96 % 0.0 in /  0 mm
07:18 9.1 °F /  -12.7 °C 8.5 °F /  -13.1 °C 1000.9 in /  33890.5 hPa WSW 23.0 mph /  37 km/h 30.9 mph /  49.7 km/h 96 % 0.0 in /  0 mm
07:23 9.0 °F /  -12.8 °C 8.4 °F /  -13.1 °C 1000.9 in /  33890.5 hPa SW 20.9 mph /  33.6 km/h 30.2 mph /  48.6 km/h 96 % 0.0 in /  0 mm
07:28 9.0 °F /  -12.8 °C 8.4 °F /  -13.1 °C 1000.9 in /  33890.5 hPa SW 20.9 mph /  33.6 km/h 30.2 mph /  48.6 km/h 96 % 0.0 in /  0 mm
07:33 9.0 °F /  -12.8 °C 8.4 °F /  -13.1 °C 1000.9 in /  33890.5 hPa SW 17.2 mph /  27.7 km/h 26.2 mph /  42.2 km/h 96 % 0.0 in /  0 mm
07:38 9.0 °F /  -12.8 °C 8.4 °F /  -13.1 °C 1000.9 in /  33890.5 hPa SW 19.1 mph /  30.7 km/h 24.8 mph /  39.9 km/h 96 % 0.0 in /  0 mm
07:43 9.0 °F /  -12.8 °C 8.4 °F /  -13.1 °C 1000.9 in /  33890.5 hPa SSW 21.6 mph /  34.8 km/h 28.0 mph /  45.1 km/h 96 % 0.0 in /  0 mm
07:48 9.0 °F /  -12.8 °C 8.4 °F /  -13.1 °C 1000.9 in /  33890.5 hPa SW 20.1 mph /  32.3 km/h 28.0 mph /  45.1 km/h 96 % 0.0 in /  0 mm
07:53 9.0 °F /  -12.8 °C 8.4 °F /  -13.1 °C 1000.9 in /  33890.5 hPa WSW 28.5 mph /  45.9 km/h 35.2 mph /  56.6 km/h 96 % 0.0 in /  0 mm
07:58 9.1 °F /  -12.7 °C 8.5 °F /  -13.1 °C 1000.9 in /  33890.5 hPa WSW 20.1 mph /  32.3 km/h 35.2 mph /  56.6 km/h 96 % 0.0 in /  0 mm
08:03 9.1 °F /  -12.7 °C 8.5 °F /  -13.1 °C 1000.9 in /  33890.5 hPa WSW 16.3 mph /  26.2 km/h 28.5 mph /  45.9 km/h 96 % 0.0 in /  0 mm
08:08 9.1 °F /  -12.7 °C 8.5 °F /  -13.1 °C 999.9 in /  33856.6 hPa SSW 23.0 mph /  37 km/h 33.1 mph /  53.3 km/h 96 % 0.0 in /  0 mm
08:13 9.1 °F /  -12.7 °C 8.5 °F /  -13.1 °C 999.9 in /  33856.6 hPa SW 17.2 mph /  27.7 km/h 33.1 mph /  53.3 km/h 96 % 0.0 in /  0 mm
08:18 9.1 °F /  -12.7 °C 8.5 °F /  -13.1 °C 999.9 in /  33856.6 hPa WSW 16.6 mph /  26.7 km/h 28.5 mph /  45.9 km/h 96 % 0.0 in /  0 mm
08:23 9.1 °F /  -12.7 °C 8.5 °F /  -13.1 °C 998.9 in /  33822.8 hPa WSW 16.9 mph /  27.2 km/h 28.5 mph /  45.9 km/h 96 % 0.0 in /  0 mm
08:28 9.1 °F /  -12.7 °C 8.5 °F /  -13.1 °C 998.9 in /  33822.8 hPa SSW 19.5 mph /  31.4 km/h 24.5 mph /  39.4 km/h 96 % 0.0 in /  0 mm
08:33 9.1 °F /  -12.7 °C 8.5 °F /  -13.1 °C 998.9 in /  33822.8 hPa SW 17.7 mph /  28.5 km/h 27.4 mph /  44.1 km/h 96 % 0.0 in /  0 mm
08:38 9.1 °F /  -12.7 °C 8.5 °F /  -13.1 °C 998.9 in /  33822.8 hPa SW 25.6 mph /  41.2 km/h 27.7 mph /  44.6 km/h 96 % 0.0 in /  0 mm
08:43 9.1 °F /  -12.7 °C 8.5 °F /  -13.1 °C 998.9 in /  33822.8 hPa WSW 30.2 mph /  48.6 km/h 30.2 mph /  48.6 km/h 96 % 0.0 in /  0 mm
08:48 9.1 °F /  -12.7 °C 8.5 °F /  -13.1 °C 998.9 in /  33822.8 hPa SW 20.9 mph /  33.6 km/h 34.6 mph /  55.7 km/h 96 % 0.0 in /  0 mm
08:53 9.1 °F /  -12.7 °C 8.5 °F /  -13.1 °C 998.9 in /  33822.8 hPa SW 24.5 mph /  39.4 km/h 35.6 mph /  57.3 km/h 96 % 0.0 in /  0 mm
08:58 9.1 °F /  -12.7 °C 8.5 °F /  -13.1 °C 998.9 in /  33822.8 hPa SW 29.9 mph /  48.1 km/h 36.4 mph /  58.6 km/h 96 % 0.0 in /  0 mm
09:03 9.1 °F /  -12.7 °C 8.5 °F /  -13.1 °C 998.9 in /  33822.8 hPa SW 21.9 mph /  35.2 km/h 36.4 mph /  58.6 km/h 96 % 0.0 in /  0 mm
09:08 9.2 °F /  -12.7 °C 8.6 °F /  -13 °C 998.9 in /  33822.8 hPa SW 19.8 mph /  31.9 km/h 36.0 mph /  57.9 km/h 96 % 0.0 in /  0 mm
09:13 9.2 °F /  -12.7 °C 8.6 °F /  -13 °C 998.9 in /  33822.8 hPa SW 20.1 mph /  32.3 km/h 35.6 mph /  57.3 km/h 96 % 0.0 in /  0 mm
09:18 9.2 °F /  -12.7 °C 8.6 °F /  -13 °C 998.9 in /  33822.8 hPa SSW 35.6 mph /  57.3 km/h 36.0 mph /  57.9 km/h 96 % 0.0 in /  0 mm
09:23 9.2 °F /  -12.7 °C 8.6 °F /  -13 °C 998.9 in /  33822.8 hPa SSW 35.2 mph /  56.6 km/h 36.0 mph /  57.9 km/h 96 % 0.0 in /  0 mm
09:28 9.2 °F /  -12.7 °C 8.6 °F /  -13 °C 998.9 in /  33822.8 hPa SSW 27.4 mph /  44.1 km/h 35.6 mph /  57.3 km/h 96 % 0.0 in /  0 mm
09:33 9.2 °F /  -12.7 °C 8.6 °F /  -13 °C 998.9 in /  33822.8 hPa SW 17.7 mph /  28.5 km/h 35.2 mph /  56.6 km/h 96 % 0.0 in /  0 mm
09:38 9.2 °F /  -12.7 °C 8.6 °F /  -13 °C 998.9 in /  33822.8 hPa SSW 26.2 mph /  42.2 km/h 28.0 mph /  45.1 km/h 96 % 0.0 in /  0 mm
09:43 9.3 °F /  -12.6 °C 8.7 °F /  -12.9 °C 998.9 in /  33822.8 hPa WSW 23.8 mph /  38.3 km/h 36.0 mph /  57.9 km/h 96 % 0.0 in /  0 mm
09:48 9.2 °F /  -12.7 °C 8.6 °F /  -13 °C 998.9 in /  33822.8 hPa SW 32.0 mph /  51.5 km/h 36.0 mph /  57.9 km/h 96 % 0.0 in /  0 mm
09:53 9.2 °F /  -12.7 °C 8.6 °F /  -13 °C 997.9 in /  33788.9 hPa SW 19.8 mph /  31.9 km/h 37.0 mph /  59.5 km/h 96 % 0.0 in /  0 mm
09:58 9.2 °F /  -12.7 °C 8.6 °F /  -13 °C 997.9 in /  33788.9 hPa SSW 14.3 mph /  23 km/h 37.0 mph /  59.5 km/h 96 % 0.0 in /  0 mm
10:03 9.3 °F /  -12.6 °C 8.7 °F /  -12.9 °C 997.9 in /  33788.9 hPa WSW 23.8 mph /  38.3 km/h 30.6 mph /  49.2 km/h 96 % 0.0 in /  0 mm
10:08 9.3 °F /  -12.6 °C 8.7 °F /  -12.9 °C 997.9 in /  33788.9 hPa SSW 16.9 mph /  27.2 km/h 30.6 mph /  49.2 km/h 96 % 0.0 in /  0 mm
10:13 9.3 °F /  -12.6 °C 8.7 °F /  -12.9 °C 997.9 in /  33788.9 hPa SW 20.1 mph /  32.3 km/h 30.9 mph /  49.7 km/h 96 % 0.0 in /  0 mm
10:18 9.4 °F /  -12.6 °C 8.8 °F /  -12.9 °C 997.9 in /  33788.9 hPa WSW 19.8 mph /  31.9 km/h 37.5 mph /  60.3 km/h 96 % 0.0 in /  0 mm
10:23 9.4 °F /  -12.6 °C 8.8 °F /  -12.9 °C 996.8 in /  33751.6 hPa South 16.6 mph /  26.7 km/h 37.5 mph /  60.3 km/h 96 % 0.0 in /  0 mm
10:28 9.5 °F /  -12.5 °C 8.9 °F /  -12.8 °C 996.8 in /  33751.6 hPa WSW 20.1 mph /  32.3 km/h 28.5 mph /  45.9 km/h 96 % 0.0 in /  0 mm
10:33 9.5 °F /  -12.5 °C 8.9 °F /  -12.8 °C 996.8 in /  33751.6 hPa SSW 20.6 mph /  33.2 km/h 42.8 mph /  68.9 km/h 96 % 0.3 in /  7.62 mm
10:38 9.6 °F /  -12.4 °C 9.0 °F /  -12.8 °C 996.8 in /  33751.6 hPa SSW 20.6 mph /  33.2 km/h 42.8 mph /  68.9 km/h 96 % 0.3 in /  7.62 mm
10:43 9.6 °F /  -12.4 °C 9.0 °F /  -12.8 °C 996.8 in /  33751.6 hPa SSW 35.6 mph /  57.3 km/h 35.6 mph /  57.3 km/h 96 % 0.3 in /  7.62 mm
10:48 9.7 °F /  -12.4 °C 9.1 °F /  -12.7 °C 996.8 in /  33751.6 hPa WSW 24.8 mph /  39.9 km/h 38.9 mph /  62.6 km/h 96 % 0.3 in /  7.62 mm
10:53 9.8 °F /  -12.3 °C 9.1 °F /  -12.7 °C 996.8 in /  33751.6 hPa WSW 17.2 mph /  27.7 km/h 38.9 mph /  62.6 km/h 95 % 0.3 in /  7.62 mm
10:58 9.9 °F /  -12.3 °C 9.1 °F /  -12.7 °C 996.8 in /  33751.6 hPa SSW 26.2 mph /  42.2 km/h 38.1 mph /  61.3 km/h 95 % 0.3 in /  7.62 mm
11:03 9.9 °F /  -12.3 °C 9.1 °F /  -12.7 °C 996.8 in /  33751.6 hPa WSW 20.6 mph /  33.2 km/h 38.1 mph /  61.3 km/h 95 % 0.3 in /  7.62 mm
11:08 10.0 °F /  -12.2 °C 9.1 °F /  -12.7 °C 996.2 in /  33731.3 hPa SW 21.2 mph /  34.1 km/h 38.5 mph /  62 km/h 94 % 0.3 in /  7.62 mm
11:13 10.0 °F /  -12.2 °C 8.9 °F /  -12.8 °C 996.2 in /  33731.3 hPa SW 28.5 mph /  45.9 km/h 39.6 mph /  63.7 km/h 93 % 0.3 in /  7.62 mm
11:18 10.1 °F /  -12.2 °C 9.0 °F /  -12.8 °C 996.2 in /  33731.3 hPa WSW 30.9 mph /  49.7 km/h 39.6 mph /  63.7 km/h 93 % 0.3 in /  7.62 mm
11:23 10.1 °F /  -12.2 °C 8.8 °F /  -12.9 °C 995.1 in /  33694.1 hPa SW 31.4 mph /  50.5 km/h 47.5 mph /  76.4 km/h 92 % 0.3 in /  7.62 mm
11:28 10.0 °F /  -12.2 °C 8.9 °F /  -12.8 °C 995.1 in /  33694.1 hPa WSW 30.9 mph /  49.7 km/h 47.5 mph /  76.4 km/h 93 % 0.3 in /  7.62 mm
11:33 10.0 °F /  -12.2 °C 8.9 °F /  -12.8 °C 995.1 in /  33694.1 hPa SW 20.1 mph /  32.3 km/h 45.7 mph /  73.5 km/h 93 % 0.0 in /  0 mm
11:38 9.9 °F /  -12.3 °C 9.0 °F /  -12.8 °C 995.1 in /  33694.1 hPa SW 27.0 mph /  43.5 km/h 45.7 mph /  73.5 km/h 94 % 0.0 in /  0 mm
11:43 9.9 °F /  -12.3 °C 9.0 °F /  -12.8 °C 995.1 in /  33694.1 hPa WSW 16.6 mph /  26.7 km/h 39.6 mph /  63.7 km/h 94 % 0.0 in /  0 mm
11:48 9.9 °F /  -12.3 °C 9.1 °F /  -12.7 °C 995.1 in /  33694.1 hPa WSW 37.0 mph /  59.5 km/h 42.5 mph /  68.4 km/h 95 % 0.0 in /  0 mm
11:53 9.9 °F /  -12.3 °C 9.1 °F /  -12.7 °C 994.1 in /  33660.2 hPa WSW 37.8 mph /  60.8 km/h 44.6 mph /  71.8 km/h 95 % 0.0 in /  0 mm
11:58 9.9 °F /  -12.3 °C 9.1 °F /  -12.7 °C 994.1 in /  33660.2 hPa WSW 19.8 mph /  31.9 km/h 44.6 mph /  71.8 km/h 95 % 0.0 in /  0 mm
12:03 9.9 °F /  -12.3 °C 9.3 °F /  -12.6 °C 994.1 in /  33660.2 hPa WSW 36.0 mph /  57.9 km/h 43.1 mph /  69.4 km/h 96 % 0.0 in /  0 mm
12:08 9.9 °F /  -12.3 °C 9.3 °F /  -12.6 °C 995.1 in /  33694.1 hPa WSW 38.1 mph /  61.3 km/h 41.0 mph /  66 km/h 96 % 0.0 in /  0 mm
12:13 10.0 °F /  -12.2 °C 9.4 °F /  -12.6 °C 995.1 in /  33694.1 hPa WSW 64.4 mph /  103.6 km/h 71.0 mph /  114.3 km/h 96 % 0.3 in /  7.62 mm
12:18 9.9 °F /  -12.3 °C 9.1 °F /  -12.7 °C 995.1 in /  33694.1 hPa West 39.3 mph /  63.2 km/h 71.0 mph /  114.3 km/h 95 % 0.5 in /  12.7 mm
12:23 10.0 °F /  -12.2 °C 9.4 °F /  -12.6 °C 995.1 in /  33694.1 hPa WSW 40.4 mph /  65 km/h 65.8 mph /  105.9 km/h 96 % 0.8 in /  20.32 mm
12:28 10.2 °F /  -12.1 °C 9.6 °F /  -12.4 °C 995.1 in /  33694.1 hPa WSW 41.7 mph /  67.1 km/h 48.6 mph /  78.2 km/h 96 % 0.8 in /  20.32 mm
12:33 10.3 °F /  -12.1 °C 9.5 °F /  -12.5 °C 995.1 in /  33694.1 hPa SW 46.5 mph /  74.8 km/h 59.7 mph /  96.1 km/h 95 % 0.8 in /  20.32 mm
12:38 10.6 °F /  -11.9 °C 9.2 °F /  -12.7 °C 994.1 in /  33660.2 hPa West 50.0 mph /  80.5 km/h 63.7 mph /  102.5 km/h 91 % 0.8 in /  20.32 mm
12:43 11.1 °F /  -11.6 °C 9.0 °F /  -12.8 °C 994.1 in /  33660.2 hPa WSW 55.3 mph /  89 km/h 67.7 mph /  108.9 km/h 87 % 0.8 in /  20.32 mm
12:48 11.1 °F /  -11.6 °C 8.7 °F /  -12.9 °C 994.1 in /  33660.2 hPa WSW 41.4 mph /  66.6 km/h 67.7 mph /  108.9 km/h 85 % 0.8 in /  20.32 mm
12:53 10.9 °F /  -11.7 °C 7.6 °F /  -13.6 °C 995.1 in /  33694.1 hPa WSW 59.1 mph /  95.1 km/h 63.4 mph /  102 km/h 80 % 1.3 in /  33.02 mm
12:58 10.8 °F /  -11.8 °C 7.3 °F /  -13.7 °C 995.1 in /  33694.1 hPa WSW 44.6 mph /  71.8 km/h 69.8 mph /  112.3 km/h 79 % 1.3 in /  33.02 mm
13:03 10.8 °F /  -11.8 °C 7.3 °F /  -13.7 °C 995.1 in /  33694.1 hPa WSW 37.5 mph /  60.3 km/h 69.8 mph /  112.3 km/h 79 % 1.3 in /  33.02 mm
13:08 10.8 °F /  -11.8 °C 6.5 °F /  -14.2 °C 995.1 in /  33694.1 hPa WSW 37.8 mph /  60.8 km/h 59.4 mph /  95.6 km/h 75 % 1.3 in /  33.02 mm
13:13 11.4 °F /  -11.4 °C 7.8 °F /  -13.4 °C 995.1 in /  33694.1 hPa WSW 50.0 mph /  80.5 km/h 59.4 mph /  95.6 km/h 79 % 1.0 in /  25.4 mm
13:18 11.7 °F /  -11.3 °C 7.8 °F /  -13.4 °C 995.1 in /  33694.1 hPa West 41.0 mph /  66 km/h 65.5 mph /  105.4 km/h 77 % 0.8 in /  20.32 mm
13:23 11.4 °F /  -11.4 °C 7.4 °F /  -13.7 °C 994.1 in /  33660.2 hPa West 53.6 mph /  86.3 km/h 67.3 mph /  108.3 km/h 76 % 0.3 in /  7.62 mm
13:28 11.8 °F /  -11.2 °C 7.4 °F /  -13.7 °C 994.1 in /  33660.2 hPa West 68.7 mph /  110.6 km/h 71.3 mph /  114.7 km/h 75 % 0.3 in /  7.62 mm
13:33 11.9 °F /  -11.2 °C 6.4 °F /  -14.2 °C 994.1 in /  33660.2 hPa WSW 51.8 mph /  83.4 km/h 80.9 mph /  130.2 km/h 69 % 0.3 in /  7.62 mm
13:38 11.8 °F /  -11.2 °C 5.4 °F /  -14.8 °C 994.1 in /  33660.2 hPa WSW 78.5 mph /  126.3 km/h 80.9 mph /  130.2 km/h 65 % 0.3 in /  7.62 mm
13:43 11.7 °F /  -11.3 °C 5.3 °F /  -14.8 °C 994.1 in /  33660.2 hPa West 54.7 mph /  88 km/h 78.5 mph /  126.3 km/h 65 % 0.3 in /  7.62 mm
13:48 11.7 °F /  -11.3 °C 5.1 °F /  -14.9 °C 994.1 in /  33660.2 hPa WSW 59.7 mph /  96.1 km/h 70.5 mph /  113.5 km/h 64 % 0.3 in /  7.62 mm
13:53 11.7 °F /  -11.3 °C 5.5 °F /  -14.7 °C 994.1 in /  33660.2 hPa West 63.7 mph /  102.5 km/h 75.6 mph /  121.7 km/h 66 % 0.0 in /  0 mm
13:58 11.4 °F /  -11.4 °C 4.7 °F /  -15.2 °C 994.1 in /  33660.2 hPa West 67.3 mph /  108.3 km/h 75.6 mph /  121.7 km/h 63 % 0.0 in /  0 mm
14:03 11.4 °F /  -11.4 °C 4.8 °F /  -15.1 °C 994.1 in /  33660.2 hPa WSW 52.6 mph /  84.6 km/h 73.9 mph /  118.9 km/h 64 % 0.0 in /  0 mm
14:08 11.4 °F /  -11.4 °C 4.3 °F /  -15.4 °C 994.1 in /  33660.2 hPa West 64.4 mph /  103.6 km/h 95.1 mph /  153 km/h 62 % 0.0 in /  0 mm
14:13 11.2 °F /  -11.6 °C 4.4 °F /  -15.3 °C 994.1 in /  33660.2 hPa West 62.3 mph /  100.3 km/h 95.1 mph /  153 km/h 63 % 0.0 in /  0 mm
14:18 11.0 °F /  -11.7 °C 4.4 °F /  -15.3 °C 994.1 in /  33660.2 hPa West 70.5 mph /  113.5 km/h 83.5 mph /  134.4 km/h 64 % 0.0 in /  0 mm
14:23 10.9 °F /  -11.7 °C 4.6 °F /  -15.2 °C 994.1 in /  33660.2 hPa West 75.6 mph /  121.7 km/h 83.5 mph /  134.4 km/h 65 % 0.0 in /  0 mm
14:28 10.9 °F /  -11.7 °C 4.1 °F /  -15.5 °C 994.1 in /  33660.2 hPa West 53.3 mph /  85.8 km/h 76.6 mph /  123.3 km/h 63 % 0.0 in /  0 mm
14:33 10.8 °F /  -11.8 °C 4.2 °F /  -15.4 °C 994.1 in /  33660.2 hPa WSW 56.8 mph /  91.4 km/h 76.6 mph /  123.3 km/h 64 % 0.0 in /  0 mm
14:38 10.7 °F /  -11.8 °C 3.9 °F /  -15.6 °C 994.1 in /  33660.2 hPa WSW 69.8 mph /  112.3 km/h 79.5 mph /  127.9 km/h 63 % 0.0 in /  0 mm
14:43 10.7 °F /  -11.8 °C 4.2 °F /  -15.4 °C 994.1 in /  33660.2 hPa West 39.3 mph /  63.2 km/h 79.5 mph /  127.9 km/h 64 % 0.0 in /  0 mm
14:48 10.7 °F /  -11.8 °C 4.4 °F /  -15.3 °C 994.1 in /  33660.2 hPa WSW 60.8 mph /  97.8 km/h 71.0 mph /  114.3 km/h 65 % 0.0 in /  0 mm
14:53 10.7 °F /  -11.8 °C 4.8 °F /  -15.1 °C 994.1 in /  33660.2 hPa West 48.3 mph /  77.7 km/h 71.0 mph /  114.3 km/h 67 % 0.0 in /  0 mm
14:58 10.8 °F /  -11.8 °C 4.9 °F /  -15.1 °C 994.1 in /  33660.2 hPa West 53.3 mph /  85.8 km/h 70.5 mph /  113.5 km/h 67 % 0.0 in /  0 mm
15:03 10.9 °F /  -11.7 °C 4.8 °F /  -15.1 °C 994.1 in /  33660.2 hPa SW 60.5 mph /  97.4 km/h 65.8 mph /  105.9 km/h 66 % 0.0 in /  0 mm
15:08 10.8 °F /  -11.8 °C 4.4 °F /  -15.3 °C 994.1 in /  33660.2 hPa WSW 62.6 mph /  100.7 km/h 75.3 mph /  121.2 km/h 65 % 0.0 in /  0 mm
15:13 10.8 °F /  -11.8 °C 4.0 °F /  -15.6 °C 994.1 in /  33660.2 hPa WSW 63.4 mph /  102 km/h 76.6 mph /  123.3 km/h 63 % 0.0 in /  0 mm
15:18 11.0 °F /  -11.7 °C 4.2 °F /  -15.4 °C 994.1 in /  33660.2 hPa West 42.8 mph /  68.9 km/h 76.6 mph /  123.3 km/h 63 % 0.0 in /  0 mm
15:23 10.9 °F /  -11.7 °C 3.9 °F /  -15.6 °C 994.1 in /  33660.2 hPa WSW 71.6 mph /  115.2 km/h 85.3 mph /  137.3 km/h 62 % 0.0 in /  0 mm
15:28 11.1 °F /  -11.6 °C 4.3 °F /  -15.4 °C 994.1 in /  33660.2 hPa West 62.9 mph /  101.2 km/h 85.3 mph /  137.3 km/h 63 % 0.0 in /  0 mm
15:33 11.0 °F /  -11.7 °C 3.9 °F /  -15.6 °C 994.1 in /  33660.2 hPa West 60.5 mph /  97.4 km/h 74.5 mph /  119.9 km/h 62 % 0.0 in /  0 mm
15:38 11.0 °F /  -11.7 °C 3.5 °F /  -15.8 °C 994.1 in /  33660.2 hPa West 58.7 mph /  94.5 km/h 74.5 mph /  119.9 km/h 60 % 0.0 in /  0 mm
15:43 11.2 °F /  -11.6 °C 4.4 °F /  -15.3 °C 994.1 in /  33660.2 hPa West 56.8 mph /  91.4 km/h 74.2 mph /  119.4 km/h 63 % 0.0 in /  0 mm
15:48 10.8 °F /  -11.8 °C 3.1 °F /  -16.1 °C 994.1 in /  33660.2 hPa West 60.2 mph /  96.9 km/h 74.8 mph /  120.4 km/h 59 % 0.0 in /  0 mm
15:53 10.7 °F /  -11.8 °C 3.7 °F /  -15.7 °C 994.1 in /  33660.2 hPa West 38.5 mph /  62 km/h 74.8 mph /  120.4 km/h 62 % 0.0 in /  0 mm
15:58 10.8 °F /  -11.8 °C 3.1 °F /  -16.1 °C 994.1 in /  33660.2 hPa West 47.5 mph /  76.4 km/h 76.6 mph /  123.3 km/h 59 % 0.0 in /  0 mm
16:03 10.9 °F /  -11.7 °C 3.4 °F /  -15.9 °C 994.1 in /  33660.2 hPa West 67.7 mph /  108.9 km/h 76.6 mph /  123.3 km/h 60 % 0.0 in /  0 mm
16:04 10.9 °F /  -11.7 °C 3.4 °F /  -15.9 °C 994.1 in /  33660.2 hPa WSW 53.3 mph /  85.8 km/h 76.6 mph /  123.3 km/h 60 % 0.0 in /  0 mm
16:09 10.8 °F /  -11.8 °C 3.1 °F /  -16.1 °C 994.1 in /  33660.2 hPa WSW 51.5 mph /  82.9 km/h 76.6 mph /  123.3 km/h 59 % 0.0 in /  0 mm
16:10 10.8 °F /  -11.8 °C 3.1 °F /  -16.1 °C 994.1 in /  33660.2 hPa WNW 68.1 mph /  109.6 km/h 76.6 mph /  123.3 km/h 59 % 0.0 in /  0 mm
16:15 10.6 °F /  -11.9 °C 3.1 °F /  -16.1 °C 994.1 in /  33660.2 hPa WNW 60.2 mph /  96.9 km/h 79.5 mph /  127.9 km/h 60 % 0.0 in /  0 mm
16:20 10.6 °F /  -11.9 °C 2.9 °F /  -16.2 °C 994.1 in /  33660.2 hPa West 53.3 mph /  85.8 km/h 83.2 mph /  133.9 km/h 59 % 0.0 in /  0 mm
16:25 10.5 °F /  -11.9 °C 2.8 °F /  -16.2 °C 994.1 in /  33660.2 hPa WSW 71.3 mph /  114.7 km/h 83.2 mph /  133.9 km/h 59 % 0.0 in /  0 mm
16:30 10.4 °F /  -12 °C 3.2 °F /  -16 °C 994.1 in /  33660.2 hPa West 54.1 mph /  87.1 km/h 75.9 mph /  122.1 km/h 61 % 0.0 in /  0 mm
16:35 10.4 °F /  -12 °C 2.7 °F /  -16.3 °C 994.1 in /  33660.2 hPa West 64.8 mph /  104.3 km/h 82.1 mph /  132.1 km/h 59 % 0.0 in /  0 mm
16:40 10.5 °F /  -11.9 °C 2.8 °F /  -16.2 °C 995.1 in /  33694.1 hPa West 41.4 mph /  66.6 km/h 82.1 mph /  132.1 km/h 59 % 0.0 in /  0 mm
16:45 10.5 °F /  -11.9 °C 2.8 °F /  -16.2 °C 995.1 in /  33694.1 hPa West 48.6 mph /  78.2 km/h 71.3 mph /  114.7 km/h 59 % 0.0 in /  0 mm
16:50 10.4 °F /  -12 °C 2.7 °F /  -16.3 °C 995.1 in /  33694.1 hPa West 52.1 mph /  83.8 km/h 71.0 mph /  114.3 km/h 59 % 0.0 in /  0 mm
16:55 10.3 °F /  -12.1 °C 3.1 °F /  -16.1 °C 995.1 in /  33694.1 hPa West 38.9 mph /  62.6 km/h 71.0 mph /  114.3 km/h 61 % 0.0 in /  0 mm
17:00 10.1 °F /  -12.2 °C 2.7 °F /  -16.3 °C 995.1 in /  33694.1 hPa WSW 49.7 mph /  80 km/h 67.7 mph /  108.9 km/h 60 % 0.0 in /  0 mm
17:05 10.1 °F /  -12.2 °C 3.1 °F /  -16.1 °C 995.1 in /  33694.1 hPa West 40.7 mph /  65.5 km/h 64.0 mph /  103 km/h 62 % 0.0 in /  0 mm
17:10 10.0 °F /  -12.2 °C 2.6 °F /  -16.3 °C 995.1 in /  33694.1 hPa West 52.9 mph /  85.1 km/h 75.9 mph /  122.1 km/h 60 % 0.0 in /  0 mm
17:15 10.0 °F /  -12.2 °C 2.6 °F /  -16.3 °C 995.1 in /  33694.1 hPa West 52.9 mph /  85.1 km/h 75.9 mph /  122.1 km/h 60 % 0.0 in /  0 mm
17:20 9.9 °F /  -12.3 °C 2.7 °F /  -16.3 °C 995.1 in /  33694.1 hPa West 52.1 mph /  83.8 km/h 60.8 mph /  97.8 km/h 61 % 0.0 in /  0 mm
17:25 9.8 °F /  -12.3 °C 2.4 °F /  -16.4 °C 994.1 in /  33660.2 hPa West 42.8 mph /  68.9 km/h 69.8 mph /  112.3 km/h 60 % 0.0 in /  0 mm
17:30 9.7 °F /  -12.4 °C 2.8 °F /  -16.2 °C 994.1 in /  33660.2 hPa WSW 39.6 mph /  63.7 km/h 69.8 mph /  112.3 km/h 62 % 0.0 in /  0 mm
17:35 9.6 °F /  -12.4 °C 2.7 °F /  -16.3 °C 994.1 in /  33660.2 hPa West 46.5 mph /  74.8 km/h 63.4 mph /  102 km/h 62 % 0.0 in /  0 mm
17:40 9.5 °F /  -12.5 °C 2.6 °F /  -16.3 °C 995.1 in /  33694.1 hPa WSW 44.6 mph /  71.8 km/h 63.4 mph /  102 km/h 62 % 0.0 in /  0 mm
17:45 9.4 °F /  -12.6 °C 2.5 °F /  -16.4 °C 995.1 in /  33694.1 hPa West 52.6 mph /  84.6 km/h 59.7 mph /  96.1 km/h 62 % 0.0 in /  0 mm
17:50 9.3 °F /  -12.6 °C 2.6 °F /  -16.3 °C 995.1 in /  33694.1 hPa West 41.7 mph /  67.1 km/h 59.7 mph /  96.1 km/h 63 % 0.0 in /  0 mm
17:55 9.1 °F /  -12.7 °C 2.7 °F /  -16.3 °C 995.1 in /  33694.1 hPa West 53.3 mph /  85.8 km/h 60.8 mph /  97.8 km/h 64 % 0.0 in /  0 mm
18:00 9.1 °F /  -12.7 °C 2.7 °F /  -16.3 °C 995.1 in /  33694.1 hPa SSW 48.3 mph /  77.7 km/h 68.1 mph /  109.6 km/h 64 % 0.0 in /  0 mm
18:05 9.1 °F /  -12.7 °C 2.7 °F /  -16.3 °C 995.1 in /  33694.1 hPa West 48.9 mph /  78.7 km/h 68.1 mph /  109.6 km/h 64 % 0.0 in /  0 mm
18:10 9.0 °F /  -12.8 °C 2.8 °F /  -16.2 °C 996.2 in /  33731.3 hPa WNW 42.5 mph /  68.4 km/h 58.7 mph /  94.5 km/h 65 % 0.0 in /  0 mm
18:15 8.9 °F /  -12.8 °C 2.7 °F /  -16.3 °C 996.2 in /  33731.3 hPa West 54.7 mph /  88 km/h 54.7 mph /  88 km/h 65 % 0.0 in /  0 mm
18:20 8.9 °F /  -12.8 °C 2.7 °F /  -16.3 °C 996.2 in /  33731.3 hPa WSW 44.2 mph /  71.1 km/h 55.8 mph /  89.8 km/h 65 % 0.0 in /  0 mm
18:25 8.8 °F /  -12.9 °C 2.8 °F /  -16.2 °C 996.2 in /  33731.3 hPa WSW 47.9 mph /  77.1 km/h 57.3 mph /  92.2 km/h 66 % 0.0 in /  0 mm
18:30 8.7 °F /  -12.9 °C 2.7 °F /  -16.3 °C 996.2 in /  33731.3 hPa West 48.9 mph /  78.7 km/h 57.3 mph /  92.2 km/h 66 % 0.0 in /  0 mm
18:35 8.7 °F /  -12.9 °C 2.7 °F /  -16.3 °C 996.2 in /  33731.3 hPa WSW 41.0 mph /  66 km/h 53.6 mph /  86.3 km/h 66 % 0.0 in /  0 mm
18:40 8.6 °F /  -13 °C 2.6 °F /  -16.3 °C 996.8 in /  33751.6 hPa WSW 29.9 mph /  48.1 km/h 53.6 mph /  86.3 km/h 66 % 0.0 in /  0 mm
18:45 8.6 °F /  -13 °C 2.6 °F /  -16.3 °C 996.8 in /  33751.6 hPa West 46.0 mph /  74 km/h 48.3 mph /  77.7 km/h 66 % 0.0 in /  0 mm
18:50 8.6 °F /  -13 °C 2.8 °F /  -16.2 °C 996.8 in /  33751.6 hPa West 47.9 mph /  77.1 km/h 56.8 mph /  91.4 km/h 67 % 0.0 in /  0 mm
18:55 8.6 °F /  -13 °C 2.8 °F /  -16.2 °C 996.8 in /  33751.6 hPa West 41.7 mph /  67.1 km/h 56.8 mph /  91.4 km/h 67 % 0.0 in /  0 mm
19:00 8.6 °F /  -13 °C 2.6 °F /  -16.3 °C 996.8 in /  33751.6 hPa WSW 44.2 mph /  71.1 km/h 55.8 mph /  89.8 km/h 66 % 0.0 in /  0 mm
19:05 8.6 °F /  -13 °C 2.4 °F /  -16.4 °C 996.8 in /  33751.6 hPa West 46.8 mph /  75.3 km/h 55.8 mph /  89.8 km/h 65 % 0.0 in /  0 mm
19:10 8.6 °F /  -13 °C 2.2 °F /  -16.6 °C 996.2 in /  33731.3 hPa West 43.6 mph /  70.2 km/h 56.8 mph /  91.4 km/h 64 % 0.0 in /  0 mm
19:15 8.6 °F /  -13 °C 2.2 °F /  -16.6 °C 996.2 in /  33731.3 hPa West 28.8 mph /  46.3 km/h 60.5 mph /  97.4 km/h 64 % 0.0 in /  0 mm
19:20 8.6 °F /  -13 °C 2.2 °F /  -16.6 °C 996.2 in /  33731.3 hPa West 38.9 mph /  62.6 km/h 60.5 mph /  97.4 km/h 64 % 0.0 in /  0 mm
19:25 8.6 °F /  -13 °C 2.2 °F /  -16.6 °C 996.2 in /  33731.3 hPa West 27.7 mph /  44.6 km/h 55.3 mph /  89 km/h 64 % 0.0 in /  0 mm
19:30 8.5 °F /  -13.1 °C 1.9 °F /  -16.7 °C 996.2 in /  33731.3 hPa West 27.7 mph /  44.6 km/h 50.0 mph /  80.5 km/h 63 % 0.0 in /  0 mm
19:35 8.5 °F /  -13.1 °C 2.1 °F /  -16.6 °C 996.2 in /  33731.3 hPa West 42.8 mph /  68.9 km/h 50.0 mph /  80.5 km/h 64 % 0.0 in /  0 mm
19:40 8.5 °F /  -13.1 °C 2.1 °F /  -16.6 °C 996.8 in /  33751.6 hPa WSW 27.0 mph /  43.5 km/h 52.9 mph /  85.1 km/h 64 % 0.0 in /  0 mm
19:45 8.5 °F /  -13.1 °C 2.3 °F /  -16.5 °C 996.8 in /  33751.6 hPa West 36.7 mph /  59.1 km/h 52.9 mph /  85.1 km/h 65 % 0.0 in /  0 mm
19:50 8.6 °F /  -13 °C 2.2 °F /  -16.6 °C 996.8 in /  33751.6 hPa WSW 24.5 mph /  39.4 km/h 54.7 mph /  88 km/h 64 % 0.0 in /  0 mm
19:55 8.5 °F /  -13.1 °C 2.3 °F /  -16.5 °C 997.9 in /  33788.9 hPa West 41.0 mph /  66 km/h 54.7 mph /  88 km/h 65 % 0.0 in /  0 mm
20:00 8.5 °F /  -13.1 °C 2.6 °F /  -16.3 °C 997.9 in /  33788.9 hPa West 38.1 mph /  61.3 km/h 53.3 mph /  85.8 km/h 66 % 0.0 in /  0 mm
20:05 8.5 °F /  -13.1 °C 2.6 °F /  -16.3 °C 997.9 in /  33788.9 hPa West 32.0 mph /  51.5 km/h 53.3 mph /  85.8 km/h 66 % 0.0 in /  0 mm
20:10 8.5 °F /  -13.1 °C 2.6 °F /  -16.3 °C 997.9 in /  33788.9 hPa West 37.5 mph /  60.3 km/h 59.4 mph /  95.6 km/h 66 % 0.0 in /  0 mm
20:15 8.5 °F /  -13.1 °C 2.6 °F /  -16.3 °C 997.9 in /  33788.9 hPa NW 35.6 mph /  57.3 km/h 59.4 mph /  95.6 km/h 66 % 0.0 in /  0 mm
20:20 8.4 °F /  -13.1 °C 2.7 °F /  -16.3 °C 997.9 in /  33788.9 hPa West 20.9 mph /  33.6 km/h 53.3 mph /  85.8 km/h 67 % 0.0 in /  0 mm
20:25 8.3 °F /  -13.2 °C 2.6 °F /  -16.3 °C 998.9 in /  33822.8 hPa WSW 22.4 mph /  36 km/h 40.4 mph /  65 km/h 67 % 0.0 in /  0 mm
20:30 8.3 °F /  -13.2 °C 2.6 °F /  -16.3 °C 998.9 in /  33822.8 hPa West 36.0 mph /  57.9 km/h 36.7 mph /  59.1 km/h 67 % 0.0 in /  0 mm
20:35 8.3 °F /  -13.2 °C 2.6 °F /  -16.3 °C 998.9 in /  33822.8 hPa West 30.2 mph /  48.6 km/h 41.7 mph /  67.1 km/h 67 % 0.0 in /  0 mm
20:40 8.3 °F /  -13.2 °C 2.6 °F /  -16.3 °C 998.9 in /  33822.8 hPa WNW 21.2 mph /  34.1 km/h 42.2 mph /  67.9 km/h 67 % 0.0 in /  0 mm
20:45 8.5 °F /  -13.1 °C 2.3 °F /  -16.5 °C 998.9 in /  33822.8 hPa West 20.6 mph /  33.2 km/h 42.2 mph /  67.9 km/h 65 % 0.0 in /  0 mm
20:50 8.5 °F /  -13.1 °C 2.3 °F /  -16.5 °C 998.9 in /  33822.8 hPa West 40.7 mph /  65.5 km/h 40.7 mph /  65.5 km/h 65 % 0.0 in /  0 mm
20:55 8.5 °F /  -13.1 °C 2.1 °F /  -16.6 °C 997.9 in /  33788.9 hPa NW 27.7 mph /  44.6 km/h 40.7 mph /  65.5 km/h 64 % 0.0 in /  0 mm
21:00 8.6 °F /  -13 °C 1.7 °F /  -16.8 °C 997.9 in /  33788.9 hPa WSW 27.0 mph /  43.5 km/h 42.2 mph /  67.9 km/h 62 % 0.0 in /  0 mm
21:05 8.6 °F /  -13 °C 1.5 °F /  -16.9 °C 997.9 in /  33788.9 hPa NW 27.0 mph /  43.5 km/h 45.1 mph /  72.6 km/h 61 % 0.0 in /  0 mm
21:10 8.6 °F /  -13 °C 1.3 °F /  -17.1 °C 999.9 in /  33856.6 hPa NNW 18.0 mph /  29 km/h 45.1 mph /  72.6 km/h 60 % 0.0 in /  0 mm
21:15 8.5 °F /  -13.1 °C 1.2 °F /  -17.1 °C 999.9 in /  33856.6 hPa West 17.2 mph /  27.7 km/h 31.7 mph /  51 km/h 60 % 0.0 in /  0 mm
21:20 8.6 °F /  -13 °C 1.1 °F /  -17.2 °C 999.9 in /  33856.6 hPa West 12.2 mph /  19.6 km/h 28.0 mph /  45.1 km/h 59 % 0.0 in /  0 mm
21:25 8.6 °F /  -13 °C 0.8 °F /  -17.3 °C 1000.9 in /  33890.5 hPa West 25.3 mph /  40.7 km/h 36.4 mph /  58.6 km/h 58 % 0.0 in /  0 mm
21:30 8.6 °F /  -13 °C 0.6 °F /  -17.4 °C 1000.9 in /  33890.5 hPa WNW 19.8 mph /  31.9 km/h 37.8 mph /  60.8 km/h 57 % 0.0 in /  0 mm
21:35 8.5 °F /  -13.1 °C 0.2 °F /  -17.7 °C 1000.9 in /  33890.5 hPa WNW 18.3 mph /  29.5 km/h 38.1 mph /  61.3 km/h 56 % 0.0 in /  0 mm
21:40 8.5 °F /  -13.1 °C 0.2 °F /  -17.7 °C 1000.9 in /  33890.5 hPa WNW 23.0 mph /  37 km/h 38.1 mph /  61.3 km/h 56 % 0.0 in /  0 mm
21:45 8.5 °F /  -13.1 °C 0.5 °F /  -17.5 °C 1000.9 in /  33890.5 hPa WNW 14.0 mph /  22.5 km/h 36.7 mph /  59.1 km/h 57 % 0.0 in /  0 mm
21:50 8.4 °F /  -13.1 °C 0.4 °F /  -17.6 °C 1000.9 in /  33890.5 hPa NW 22.4 mph /  36 km/h 30.2 mph /  48.6 km/h 57 % 0.0 in /  0 mm
21:55 8.3 °F /  -13.2 °C 0.1 °F /  -17.7 °C 1000.9 in /  33890.5 hPa WNW 31.7 mph /  51 km/h 31.7 mph /  51 km/h 56 % 0.0 in /  0 mm
22:00 8.3 °F /  -13.2 °C 0.1 °F /  -17.7 °C 1000.9 in /  33890.5 hPa WSW 10.1 mph /  16.3 km/h 32.8 mph /  52.8 km/h 56 % 0.0 in /  0 mm
22:05 8.3 °F /  -13.2 °C -0.2 °F /  -17.9 °C 1000.9 in /  33890.5 hPa West 8.7 mph /  14 km/h 35.6 mph /  57.3 km/h 55 % 0.0 in /  0 mm
22:10 8.3 °F /  -13.2 °C -0.4 °F /  -18 °C 1000.9 in /  33890.5 hPa West 13.0 mph /  20.9 km/h 39.3 mph /  63.2 km/h 54 % 0.0 in /  0 mm
22:15 8.3 °F /  -13.2 °C -0.2 °F /  -17.9 °C 1000.9 in /  33890.5 hPa North 9.3 mph /  15 km/h 39.3 mph /  63.2 km/h 55 % 0.0 in /  0 mm
22:20 8.2 °F /  -13.2 °C -0.1 °F /  -17.8 °C 1000.9 in /  33890.5 hPa South 14.0 mph /  22.5 km/h 27.7 mph /  44.6 km/h 56 % 0.0 in /  0 mm
22:25 8.2 °F /  -13.2 °C -0.1 °F /  -17.8 °C 1001.9 in /  33924.3 hPa North 10.1 mph /  16.3 km/h 35.6 mph /  57.3 km/h 56 % 0.0 in /  0 mm
22:30 8.1 °F /  -13.3 °C 0.1 °F /  -17.7 °C 1001.9 in /  33924.3 hPa WNW 19.1 mph /  30.7 km/h 35.6 mph /  57.3 km/h 57 % 0.0 in /  0 mm
22:35 8.1 °F /  -13.3 °C 0.3 °F /  -17.6 °C 1001.9 in /  33924.3 hPa West 31.4 mph /  50.5 km/h 31.4 mph /  50.5 km/h 58 % 0.0 in /  0 mm
22:40 8.1 °F /  -13.3 °C 0.0 °F /  -17.8 °C 1002.9 in /  33958.2 hPa NNW 14.0 mph /  22.5 km/h 40.4 mph /  65 km/h 57 % 0.0 in /  0 mm
22:45 8.1 °F /  -13.3 °C 0.3 °F /  -17.6 °C 1002.9 in /  33958.2 hPa NNW 15.1 mph /  24.3 km/h 40.4 mph /  65 km/h 58 % 0.0 in /  0 mm
22:50 7.9 °F /  -13.4 °C 0.4 °F /  -17.6 °C 1002.9 in /  33958.2 hPa WNW 23.0 mph /  37 km/h 26.2 mph /  42.2 km/h 59 % 0.0 in /  0 mm
22:55 7.9 °F /  -13.4 °C 0.7 °F /  -17.4 °C 1002.9 in /  33958.2 hPa WNW 23.3 mph /  37.5 km/h 26.2 mph /  42.2 km/h 60 % 0.0 in /  0 mm
23:00 7.8 °F /  -13.4 °C 0.8 °F /  -17.3 °C 1002.9 in /  33958.2 hPa West 15.8 mph /  25.4 km/h 23.3 mph /  37.5 km/h 61 % 0.0 in /  0 mm
23:05 7.8 °F /  -13.4 °C 0.8 °F /  -17.3 °C 1002.9 in /  33958.2 hPa West 16.3 mph /  26.2 km/h 23.8 mph /  38.3 km/h 61 % 0.0 in /  0 mm
23:10 7.8 °F /  -13.4 °C 1.0 °F /  -17.2 °C 1002.9 in /  33958.2 hPa WNW 9.3 mph /  15 km/h 23.8 mph /  38.3 km/h 62 % 0.0 in /  0 mm
23:11 7.8 °F /  -13.4 °C 1.0 °F /  -17.2 °C 1002.9 in /  33958.2 hPa NNE 10.8 mph /  17.4 km/h 19.5 mph /  31.4 km/h 62 % 0.0 in /  0 mm
23:16 7.7 °F /  -13.5 °C 1.1 °F /  -17.2 °C 1002.9 in /  33958.2 hPa West 6.1 mph /  9.8 km/h 19.1 mph /  30.7 km/h 63 % 0.0 in /  0 mm
23:21 7.7 °F /  -13.5 °C 1.3 °F /  -17.1 °C 1002.9 in /  33958.2 hPa WNW 16.9 mph /  27.2 km/h 17.7 mph /  28.5 km/h 64 % 0.0 in /  0 mm
23:26 7.7 °F /  -13.5 °C 1.3 °F /  -17.1 °C 1002.9 in /  33958.2 hPa West 20.9 mph /  33.6 km/h 23.3 mph /  37.5 km/h 64 % 0.0 in /  0 mm
23:31 7.7 °F /  -13.5 °C 1.5 °F /  -16.9 °C 1002.9 in /  33958.2 hPa Calm   27.4 mph /  44.1 km/h 65 % 0.0 in /  0 mm
23:36 7.7 °F /  -13.5 °C 1.5 °F /  -16.9 °C 1002.9 in /  33958.2 hPa East 6.9 mph /  11.1 km/h 27.4 mph /  44.1 km/h 65 % 0.0 in /  0 mm
23:41 7.6 °F /  -13.6 °C 1.6 °F /  -16.9 °C 1003.9 in /  33992.1 hPa West 6.1 mph /  9.8 km/h 23.8 mph /  38.3 km/h 66 % 0.0 in /  0 mm
23:46 7.4 °F /  -13.7 °C 1.7 °F /  -16.8 °C 1003.9 in /  33992.1 hPa NW 10.1 mph /  16.3 km/h 24.8 mph /  39.9 km/h 67 % 0.0 in /  0 mm
23:51 7.3 °F /  -13.7 °C 1.7 °F /  -16.8 °C 1003.9 in /  33992.1 hPa NW 5.5 mph /  8.9 km/h 24.8 mph /  39.9 km/h 68 % 0.0 in /  0 mm
23:53 7.3 °F /  -13.7 °C 1.7 °F /  -16.8 °C 1003.9 in /  33992.1 hPa West 4.0 mph /  6.4 km/h 24.8 mph /  39.9 km/h 68 % 0.0 in /  0 mm
23:58 7.2 °F /  -13.8 °C 1.8 °F /  -16.8 °C 1003.9 in /  33992.1 hPa NW 4.7 mph /  7.6 km/h 15.1 mph /  24.3 km/h 69 % 0.0 in /  0 mm
Le Gheer Warneton
Courtoisie de Weather Underground - 2.25 mb

Mise a jour : 25/02/2018 18:32:11
Généré par Cumulus 1.9.4 (1099)